Latest Coastal Weather Observations for Green Cape

IDN60701

Issued at 9:21 pm EDT Friday 15 December 2017 (issued every 10 minutes, with the page automatically refreshed every 10 minutes)

About coastal observations | Map of coastal stations | Coastal observations for NSW | Marine services | Other Formats
Station Details ID: 069137 Name: GREEN CAPE AWS Lat: -37.26 Lon: 150.05 Height: 19.4 m
Data from the previous 72 hours. | See also: Recent months at Green Cape
Date/Time
EDT
Temp
°C
Wind Pressure Rain since
9am
mm
Weather Cloud Vis
km
Sea
Height
m
Swell
Dir  Spd
kts
Gust
kts
hPa Trend Height
m
Period
s
Dir
15/09:00pm 20.0 NNE 12 13 1011.7 - 0.0 - - - - - - -
15/08:30pm 20.0 NNE 12 13 1011.6 - 0.0 - - - - - - -
15/08:00pm 20.1 NNE 12 14 1011.4 - 0.0 - - - - - - -
15/07:30pm 20.3 NNE 13 15 1011.1 - 0.0 - - - - - - -
15/07:00pm 20.4 NNE 12 14 1010.7 - 0.0 - - - - - - -
15/06:30pm 20.5 NNE 13 15 1010.6 - 0.0 - - - - - - -
15/06:00pm 20.6 NNE 11 13 1010.6 - 0.0 - - - - - - -
15/05:30pm 20.8 NNE 12 13 1010.6 - 0.0 - - - - - - -
15/05:00pm 20.9 NNE 11 13 1010.8 - 0.0 - - - - - - -
15/04:30pm 21.0 NNE 12 15 1011.1 - 0.0 - - - - - - -
15/04:00pm 21.1 NNE 13 16 1011.2 - 0.0 - - - - - - -
15/03:30pm 21.8 NNE 11 13 1011.6 - 0.0 - - - - - - -
15/03:00pm 22.1 NNE 10 12 1012.1 - 0.0 - - - - - - -
15/02:30pm 22.6 NNE 8 11 1012.4 - 0.0 - - - - - - -
15/02:00pm 22.9 NNE 8 11 1012.5 - 0.0 - - - - - - -
15/01:30pm 22.9 NNE 7 9 1012.9 - 0.0 - - - - - - -
15/01:00pm 23.4 NNE 6 8 1013.0 - 0.0 - - - - - - -
15/12:30pm 22.0 NNE 5 6 1013.4 - 0.0 - - - - - - -
15/12:00pm 22.2 NNE 4 6 1013.7 - 0.0 - - - - - - -
15/11:30am 21.3 NNE 4 5 1013.9 - 0.0 - - - - - - -
15/11:00am 20.8 NNE 3 5 1014.0 - 0.0 - - - - - - -
15/10:30am 19.7 N 2 3 1014.3 - 0.0 - - - - - - -
15/10:00am 19.1 NNE 2 3 1014.4 - 0.0 - - - - - - -
15/09:30am 18.3 CALM 0 0 1014.2 - 0.0 - - - - - - -
15/09:00am 17.9 WNW 3 4 1014.2 - 0.0 - - - - - - -
15/08:30am 17.7 WNW 5 7 1014.3 - 0.0 - - - - - - -
15/08:00am 17.6 WNW 6 9 1014.2 - 0.0 - - - - - - -
15/07:30am 17.9 W 5 6 1013.9 - 0.0 - - - - - - -
15/07:00am 18.0 SW 5 8 1013.6 - 0.0 - - - - - - -
15/06:30am 17.8 WSW 7 8 1013.3 - 0.0 - - - - - - -
15/06:00am 17.8 SW 8 10 1013.1 - 0.0 - - - - - - -
15/05:30am 17.8 SW 10 11 1012.9 - 0.0 - - - - - - -
15/05:00am 17.8 SSW 12 14 1012.4 - 0.0 - - - - - - -
15/04:30am 17.9 SSW 11 13 1012.3 - 0.0 - - - - - - -
15/04:00am 17.9 SSW 10 12 1012.0 - 0.0 - - - - - - -
15/03:30am 18.0 SSW 12 14 1012.2 - 0.0 - - - - - - -
15/03:00am 18.0 SSW 12 14 1012.4 - 0.0 - - - - - - -
15/02:30am 18.1 SSW 13 15 1012.2 - 0.0 - - - - - - -
15/02:00am 18.1 SSW 13 15 1012.1 - 0.0 - - - - - - -
15/01:30am 18.1 SSW 13 15 1012.7 - 0.0 - - - - - - -
15/01:00am 18.5 SSW 8 10 1012.4 - 0.0 - - - - - - -
15/12:30am 18.5 SW 9 10 1012.3 - 0.0 - - - - - - -
15/12:00am 18.5 SSW 12 14 1011.6 - 0.0 - - - - - - -
 
Date/Time
EDT
Temp
°C
Wind Pressure Rain since
9am
mm
Weather Cloud Vis
km
Sea
Height
m
Swell
Dir  Spd
kts
Gust
kts
hPa Trend Height
m
Period
s
Dir
14/11:30pm 18.6 SSW 16 19 1011.1 - 0.0 - - - - - - -
14/11:00pm 18.6 S 18 20 1011.1 - 0.0 - - - - - - -
14/10:30pm 18.8 S 17 19 1011.2 - 0.0 - - - - - - -
14/10:00pm 18.9 SSW 18 21 1010.7 - 0.0 - - - - - - -
14/09:30pm 19.0 SSW 17 20 1010.2 - 0.0 - - - - - - -
14/09:00pm 19.2 SSW 19 22 1009.2 - 0.0 - - - - - - -
14/08:30pm 19.2 SSW 20 23 1008.6 - 0.0 - - - - - - -
14/08:00pm 19.2 SSW 18 20 1008.0 - 0.0 - - - - - - -
14/07:30pm 19.3 S 19 23 1007.5 - 0.0 - - - - - - -
14/07:00pm 19.7 SSW 22 26 1006.9 - 0.0 - - - - - - -
14/06:30pm 19.6 S 20 23 1006.5 - 0.0 - - - - - - -
14/06:00pm 19.6 S 24 27 1006.1 - 0.0 - - - - - - -
14/05:30pm 19.6 S 26 30 1005.1 - 0.0 - - - - - - -
14/05:00pm 20.4 S 25 30 1005.6 - 0.0 - - - - - - -
14/04:30pm 20.6 S 25 29 1005.3 - 0.0 - - - - - - -
14/04:00pm 21.1 S 25 29 1004.6 - 0.0 - - - - - - -
14/03:41pm 21.4 S 19 27 1004.1 - 0.0 - - - - - - -
14/03:30pm 21.9 S 7 16 1004.1 - 0.0 - - - - - - -
14/03:00pm 23.2 N 3 5 1003.3 - 0.0 - - - - - - -
14/02:30pm 22.4 NNW 4 9 1003.5 - 0.0 - - - - - - -
14/02:00pm 21.8 N 6 8 1003.2 - 0.0 - - - - - - -
14/01:30pm 21.4 NNW 3 6 1003.4 - 0.0 - - - - - - -
14/01:00pm 21.3 N 8 9 1003.5 - 0.0 - - - - - - -
14/12:30pm 21.4 N 5 6 1004.0 - 0.0 - - - - - - -
14/12:00pm 21.4 N 5 6 1004.1 - 0.0 - - - - - - -
14/11:30am 21.1 N 5 6 1004.1 - 0.0 - - - - - - -
14/11:00am 20.0 N 11 12 1004.0 - 0.0 - - - - - - -
14/10:30am 20.1 N 10 12 1004.2 - 0.0 - - - - - - -
14/10:00am 20.3 N 10 13 1004.2 - 0.0 - - - - - - -
14/09:30am 20.4 NNE 8 9 1004.5 - 0.0 - - - - - - -
14/09:00am 20.1 N 4 6 1004.4 - 0.0 - - - - - - -
14/08:30am 19.8 N 7 9 1004.4 - 0.0 - - - - - - -
14/08:00am 19.6 N 16 18 1004.0 - 0.0 - - - - - - -
14/07:30am 19.3 N 17 19 1003.6 - 0.0 - - - - - - -
14/07:00am 19.2 N 16 18 1003.5 - 0.0 - - - - - - -
14/06:30am 19.3 N 18 20 1003.2 - 0.0 - - - - - - -
14/06:00am 19.3 N 18 20 1003.3 - 0.0 - - - - - - -
14/05:30am 19.2 N 17 19 1003.5 - 0.0 - - - - - - -
14/05:00am 19.6 N 17 18 1003.4 - 0.0 - - - - - - -
14/04:30am 20.1 N 17 19 1003.6 - 0.0 - - - - - - -
14/04:00am 20.1 N 18 21 1003.5 - 0.0 - - - - - - -
14/03:30am 20.1 N 17 21 1004.1 - 0.0 - - - - - - -
14/03:00am 20.2 N 18 22 1004.3 - 0.0 - - - - - - -
14/02:30am 20.3 N 17 20 1004.8 - 0.0 - - - - - - -
14/02:00am 20.4 N 17 20 1005.6 - 0.0 - - - - - - -
14/01:30am 20.5 N 20 22 1005.7 - 0.0 - - - - - - -
14/01:00am 20.4 NNE 18 19 1006.2 - 0.0 - - - - - - -
14/12:30am 20.4 NNE 16 18 1006.8 - 0.0 - - - - - - -
14/12:00am 20.4 NNE 16 18 1007.6 - 0.0 - - - - - - -
 
Date/Time
EDT
Temp
°C
Wind Pressure Rain since
9am
mm
Weather Cloud Vis
km
Sea
Height
m
Swell
Dir  Spd
kts
Gust
kts
hPa Trend Height
m
Period
s
Dir
13/11:30pm 20.4 NNE 17 20 1008.1 - 0.0 - - - - - - -
13/11:00pm 20.5 N 16 18 1008.6 - 0.0 - - - - - - -
13/10:30pm 20.6 N 14 16 1009.0 - 0.0 - - - - - - -
13/10:00pm 20.7 N 12 14 1009.2 - 0.0 - - - - - - -
13/09:30pm 20.8 NNE 12 13 1009.4 - 0.0 - - - - - - -
13/09:00pm 20.8 NNE 9 11 1009.2 - 0.0 - - - - - - -
13/08:30pm 20.9 NNE 10 12 1009.1 - 0.0 - - - - - - -
13/08:00pm 21.1 NNE 12 13 1009.0 - 0.0 - - - - - - -
13/07:30pm 21.3 NNE 11 12 1009.0 - 0.0 - - - - - - -
13/07:00pm 22.3 NNE 12 13 1009.1 - 0.0 - - - - - - -
13/06:30pm 22.2 NNE 16 19 1008.5 - 0.0 - - - - - - -
13/06:00pm 22.4 NNE 13 19 1008.7 - 0.0 - - - - - - -
13/05:30pm 23.5 NNE 11 13 1008.8 - 0.0 - - - - - - -
13/05:00pm 23.2 N 13 15 1008.9 - 0.0 - - - - - - -
13/04:30pm 23.1 N 15 17 1008.9 - 0.0 - - - - - - -
13/04:00pm 23.1 N 17 18 1008.9 - 0.0 - - - - - - -
13/03:30pm 23.3 N 18 19 1009.1 - 0.0 - - - - - - -
13/03:00pm 23.2 N 18 20 1009.3 - 0.0 - - - - - - -
13/02:30pm 23.7 N 18 20 1009.6 - 0.0 - - - - - - -
13/02:00pm 23.6 N 20 23 1009.7 - 0.0 - - - - - - -
13/01:30pm 23.4 N 20 22 1010.1 - 0.0 - - - - - - -
13/01:00pm 23.7 NNE 19 22 1010.7 - 0.0 - - - - - - -
13/12:30pm 23.9 NNE 17 19 1011.2 - 0.0 - - - - - - -
13/12:00pm 23.5 NNE 18 21 1011.4 - 0.0 - - - - - - -
13/11:30am 22.8 NNE 16 18 1011.6 - 0.0 - - - - - - -
13/11:00am 23.6 NNE 14 16 1012.0 - 0.0 - - - - - - -
13/10:30am 23.5 NNE 12 13 1012.4 - 0.0 - - - - - - -
13/10:00am 23.3 N 11 13 1012.9 - 0.0 - - - - - - -
13/09:30am 22.7 N 11 12 1013.1 - 0.0 - - - - - - -
13/09:00am 22.4 NNE 10 11 1013.4 - 0.0 - - - - - - -
13/08:30am 21.6 NNE 11 13 1013.4 - 0.0 - - - - - - -
13/08:00am 21.2 N 11 12 1013.4 - 0.0 - - - - - - -
13/07:30am 20.2 NNE 8 9 1013.4 - 0.0 - - - - - - -
13/07:00am 19.9 NNE 7 8 1013.3 - 0.0 - - - - - - -
13/06:30am 19.9 N 8 9 1013.3 - 0.0 - - - - - - -
13/06:00am 19.9 NNE 10 11 1013.0 - 0.0 - - - - - - -
13/05:30am 19.9 NNE 8 9 1013.2 - 0.0 - - - - - - -
13/05:00am 20.0 NNE 10 12 1013.2 - 0.0 - - - - - - -
13/04:30am 20.0 N 9 11 1013.3 - 0.0 - - - - - - -
13/04:00am 20.0 N 8 9 1013.6 - 0.0 - - - - - - -
13/03:30am 20.1 N 9 11 1013.7 - 0.0 - - - - - - -
13/03:00am 20.2 NNE 11 13 1013.8 - 0.0 - - - - - - -
13/02:30am 20.2 NNE 8 10 1013.9 - 0.0 - - - - - - -
13/02:00am 20.2 NNE 11 13 1014.0 - 0.0 - - - - - - -
13/01:30am 20.1 NNE 11 13 1014.4 - 0.0 - - - - - - -
13/01:00am 20.0 NNE 10 12 1014.8 - 0.0 - - - - - - -
13/12:30am 20.0 NNE 10 11 1015.2 - 0.0 - - - - - - -
13/12:00am 19.9 NNE 9 11 1015.5 - 0.0 - - - - - - -
 
Date/Time
EDT
Temp
°C
Wind Pressure Rain since
9am
mm
Weather Cloud Vis
km
Sea
Height
m
Swell
Dir  Spd
kts
Gust
kts
hPa Trend Height
m
Period
s
Dir
12/11:30pm 20.0 NNE 7 8 1016.1 - 0.0 - - - - - - -
12/11:00pm 20.1 NE 8 10 1016.2 - 0.0 - - - - - - -
12/10:30pm 20.1 ENE 9 10 1016.4 - 0.0 - - - - - - -
12/10:00pm 20.1 NE 7 9 1016.6 - 0.0 - - - - - - -
12/09:30pm 19.9 NE 5 8 1016.7 - 0.0 - - - - - - -

Other Formats:

Comma delimited format used in spreadsheet applications
http://www.bom.gov.au/fwo/IDN60701/IDN60701.94934.axf

JavaScript Object Notation format (JSON) in row-major order
http://www.bom.gov.au/fwo/IDN60701/IDN60701.94934.json